Time;durP1;ratioP1;P1;durP2;ratioP2;P2;SDS_P1;SDS_P2;PMS_P1;PMS_P2;Temp;Humidity;BMP_temperature;BMP_pressure;BME280_temperature;BME280_humidity;BME280_pressure;Samples;Min_cycle;Max_cycle;Signal;HPM_P1;HPM_P2
2023/03/15 02:22:05;;;;;;;1999.90;999.90;;;;;;;;;;5385242;23;20243;-72
2023/03/15 02:24:52;;;;;;;1999.90;999.90;;;;;;;;;;4983860;28;20235;-73
2023/03/15 02:27:39;;;;;;;1999.90;999.90;;;;;;;;;;4982870;28;20549;-70
2023/03/15 02:30:24;;;;;;;1999.90;999.90;;;;;;;;;;4984800;28;20215;-72
2023/03/15 02:33:11;;;;;;;1999.90;999.90;;;;;;;;;;4972683;28;20251;-72
2023/03/15 02:35:56;;;;;;;1999.90;999.90;;;;;;;;;;4974198;28;20306;-73
2023/03/15 02:38:42;;;;;;;1999.90;999.90;;;;;;;;;;4973500;28;20212;-72
2023/03/15 02:41:29;;;;;;;1999.90;999.90;;;;;;;;;;4981713;28;20275;-70
2023/03/15 02:44:17;;;;;;;1999.90;999.90;;;;;;;;;;4975207;28;20208;-70
2023/03/15 02:47:04;;;;;;;1999.90;999.90;;;;;;;;;;4968440;28;20207;-71
2023/03/15 02:49:50;;;;;;;1999.90;999.90;;;;;;;;;;4973265;28;20584;-71
2023/03/15 02:52:35;;;;;;;1999.90;999.90;;;;;;;;;;4973733;28;20240;-71
2023/03/15 02:55:20;;;;;;;1999.90;999.90;;;;;;;;;;4973610;28;20215;-72
2023/03/15 02:58:05;;;;;;;1999.90;999.90;;;;;;;;;;4977259;28;20255;-71
2023/03/15 03:00:53;;;;;;;1999.90;999.90;;;;;;;;;;4978484;28;20735;-72
2023/03/15 03:03:38;;;;;;;1999.90;999.90;;;;;;;;;;4973148;28;20215;-72
2023/03/15 03:06:23;;;;;;;1999.90;999.90;;;;;;;;;;4973539;28;20290;-72
2023/03/15 03:09:08;;;;;;;1999.90;999.90;;;;;;;;;;4970706;28;20226;-70
2023/03/15 03:11:53;;;;;;;1999.90;999.90;;;;;;;;;;4975202;28;20414;-71
2023/03/15 03:14:38;;;;;;;1999.90;999.90;;;;;;;;;;4976062;28;20352;-71
2023/03/15 03:17:25;;;;;;;1999.90;999.90;;;;;;;;;;4971788;28;20215;-69
2023/03/15 03:20:12;;;;;;;1999.90;999.90;;;;;;;;;;4973156;28;20632;-70
2023/03/15 03:22:57;;;;;;;1999.90;999.90;;;;;;;;;;4973192;28;20285;-69
2023/03/15 03:25:44;;;;;;;1999.90;999.90;;;;;;;;;;4972916;28;20219;-71
2023/03/15 03:28:30;;;;;;;1999.90;999.90;;;;;;;;;;4980855;28;20297;-71
2023/03/15 03:31:17;;;;;;;1999.90;999.90;;;;;;;;;;4972771;28;20326;-71
2023/03/15 03:34:03;;;;;;;1999.90;999.90;;;;;;;;;;4972921;28;20288;-72
2023/03/15 03:36:48;;;;;;;1999.90;999.90;;;;;;;;;;4972745;28;20215;-72
2023/03/15 03:39:33;;;;;;;1999.90;999.90;;;;;;;;;;4972698;28;20319;-71
2023/03/15 03:42:18;;;;;;;1999.90;999.90;;;;;;;;;;4972454;28;20243;-71
2023/03/15 03:45:03;;;;;;;1999.90;999.90;;;;;;;;;;4971634;28;20503;-71
2023/03/15 03:47:50;;;;;;;1999.90;999.90;;;;;;;;;;4974148;28;20216;-71
2023/03/15 03:50:36;;;;;;;1999.90;999.90;;;;;;;;;;4976575;28;20348;-71
2023/03/15 03:53:21;;;;;;;1999.90;999.90;;;;;;;;;;4972722;28;20224;-71
2023/03/15 03:56:06;;;;;;;1999.90;999.90;;;;;;;;;;4972654;28;20277;-71
2023/03/15 03:58:52;;;;;;;1999.90;999.90;;;;;;;;;;4970872;28;20688;-71
2023/03/15 04:01:36;;;;;;;1999.90;999.90;;;;;;;;;;4975961;28;20290;-72
2023/03/15 04:04:21;;;;;;;1999.90;999.90;;;;;;;;;;4981124;28;20686;-71
2023/03/15 04:07:08;;;;;;;1999.90;999.90;;;;;;;;;;4984790;28;20215;-72
2023/03/15 04:09:53;;;;;;;1999.90;999.90;;;;;;;;;;4986667;28;20212;-71
2023/03/15 04:12:37;;;;;;;1999.90;999.90;;;;;;;;;;4989789;28;20226;-72
2023/03/15 04:15:23;;;;;;;1999.90;999.90;;;;;;;;;;4968863;28;20216;-71
2023/03/15 04:18:08;;;;;;;1999.90;999.90;;;;;;;;;;4976920;28;20203;-70
2023/03/15 04:20:54;;;;;;;1999.90;999.90;;;;;;;;;;4987921;28;20322;-71
2023/03/15 04:23:40;;;;;;;1999.90;999.90;;;;;;;;;;4991899;28;20210;-72
2023/03/15 04:26:25;;;;;;;1999.90;999.90;;;;;;;;;;4987914;28;20203;-72
2023/03/15 04:29:10;;;;;;;1999.90;999.90;;;;;;;;;;4974903;28;20563;-71
2023/03/15 04:32:00;;;;;;;1999.90;999.90;;;;;;;;;;4983215;28;20290;-71
2023/03/15 04:34:50;;;;;;;1999.90;999.90;;;;;;;;;;4985788;28;20204;-71
2023/03/15 04:37:34;;;;;;;1999.90;999.90;;;;;;;;;;4995338;28;20211;-71
2023/03/15 04:40:22;;;;;;;1999.90;999.90;;;;;;;;;;4982976;28;20441;-71
2023/03/15 04:43:08;;;;;;;1999.90;999.90;;;;;;;;;;4987453;28;20294;-71
2023/03/15 04:45:53;;;;;;;1999.90;999.90;;;;;;;;;;4986948;28;20218;-71
2023/03/15 04:48:38;;;;;;;1999.90;999.90;;;;;;;;;;4994675;28;20254;-71
2023/03/15 04:51:23;;;;;;;1999.90;999.90;;;;;;;;;;4983607;28;20591;-71
2023/03/15 04:54:08;;;;;;;1999.90;999.90;;;;;;;;;;4978349;28;20221;-71
2023/03/15 04:56:54;;;;;;;1999.90;999.90;;;;;;;;;;4991259;28;20339;-71
2023/03/15 04:59:39;;;;;;;1999.90;999.90;;;;;;;;;;4992035;28;20269;-71
2023/03/15 05:02:24;;;;;;;1999.90;999.90;;;;;;;;;;4986437;28;20833;-71
2023/03/15 05:05:10;;;;;;;1999.90;999.90;;;;;;;;;;4984760;28;20702;-70
2023/03/15 05:07:55;;;;;;;1999.90;999.90;;;;;;;;;;4994657;28;20215;-71
2023/03/15 05:10:40;;;;;;;1999.90;999.90;;;;;;;;;;4988149;28;20236;-70
2023/03/15 05:13:26;;;;;;;1999.90;999.90;;;;;;;;;;4973291;28;20422;-71
2023/03/15 05:16:11;;;;;;;1999.90;999.90;;;;;;;;;;4979312;28;21020;-71
2023/03/15 05:18:56;;;;;;;1999.90;999.90;;;;;;;;;;4984542;28;20455;-71
2023/03/15 05:21:41;;;;;;;1999.90;999.90;;;;;;;;;;4993927;28;20235;-70
2023/03/15 05:24:26;;;;;;;1999.90;999.90;;;;;;;;;;4981443;28;20488;-71
2023/03/15 05:27:12;;;;;;;1999.90;999.90;;;;;;;;;;4986710;28;20211;-71
2023/03/15 05:29:58;;;;;;;1999.90;999.90;;;;;;;;;;4980778;28;20758;-71
2023/03/15 05:32:44;;;;;;;1999.90;999.90;;;;;;;;;;4994248;28;20733;-71
2023/03/15 05:35:29;;;;;;;1999.90;999.90;;;;;;;;;;4983634;28;20203;-71
2023/03/15 05:38:14;;;;;;;1999.90;999.90;;;;;;;;;;4970154;28;20868;-73
2023/03/15 05:41:00;;;;;;;1999.90;999.90;;;;;;;;;;4991346;28;20472;-70
2023/03/15 05:43:45;;;;;;;1999.90;999.90;;;;;;;;;;4990872;28;20207;-73
2023/03/15 05:46:32;;;;;;;1999.90;999.90;;;;;;;;;;4989088;28;20295;-71
2023/03/15 05:49:16;;;;;;;1999.90;999.90;;;;;;;;;;4979183;28;20449;-72
2023/03/15 05:52:02;;;;;;;1999.90;999.90;;;;;;;;;;4993900;28;20365;-73
2023/03/15 05:54:47;;;;;;;1999.90;999.90;;;;;;;;;;4987647;28;20214;-70
2023/03/15 05:57:32;;;;;;;1999.90;999.90;;;;;;;;;;4988561;28;20550;-70
2023/03/15 06:00:17;;;;;;;1999.90;999.90;;;;;;;;;;4980071;28;20215;-70
2023/03/15 06:03:03;;;;;;;1999.90;999.90;;;;;;;;;;4967513;28;20235;-70
2023/03/15 06:05:48;;;;;;;1999.90;999.90;;;;;;;;;;4993539;28;20218;-72
2023/03/15 06:08:33;;;;;;;1999.90;999.90;;;;;;;;;;4982707;28;20441;-72
2023/03/15 06:11:18;;;;;;;1999.90;999.90;;;;;;;;;;4986502;28;20734;-72
2023/03/15 06:14:03;;;;;;;1999.90;999.90;;;;;;;;;;4984150;28;20353;-73
2023/03/15 06:16:48;;;;;;;1999.90;999.90;;;;;;;;;;4993159;28;20233;-73
2023/03/15 06:19:34;;;;;;;1999.90;999.90;;;;;;;;;;4983604;28;20343;-72
2023/03/15 06:22:19;;;;;;;1999.90;999.90;;;;;;;;;;4970660;28;20239;-73
2023/03/15 06:25:05;;;;;;;1999.90;999.90;;;;;;;;;;4991480;28;20897;-72
2023/03/15 06:27:50;;;;;;;1999.90;999.90;;;;;;;;;;4982524;28;20454;-72
2023/03/15 06:30:35;;;;;;;1999.90;999.90;;;;;;;;;;4992955;28;20214;-72
2023/03/15 06:33:23;;;;;;;1999.90;999.90;;;;;;;;;;4981825;28;20449;-73
2023/03/15 06:36:10;;;;;;;1999.90;999.90;;;;;;;;;;4992993;28;20334;-73
2023/03/15 06:38:55;;;;;;;1999.90;999.90;;;;;;;;;;4981876;28;20592;-73
2023/03/15 06:41:41;;;;;;;1999.90;999.90;;;;;;;;;;4977313;28;20231;-69
2023/03/15 06:44:26;;;;;;;1999.90;999.90;;;;;;;;;;4976638;28;20224;-69
2023/03/15 06:47:12;;;;;;;1999.90;999.90;;;;;;;;;;4971696;28;20685;-72
2023/03/15 06:49:56;;;;;;;1999.90;999.90;;;;;;;;;;4972498;28;20215;-72
2023/03/15 06:52:43;;;;;;;1999.90;999.90;;;;;;;;;;4973278;28;20272;-72
2023/03/15 06:55:27;;;;;;;1999.90;999.90;;;;;;;;;;4973333;28;20207;-72
2023/03/15 06:58:13;;;;;;;1999.90;999.90;;;;;;;;;;4976270;28;20207;-72
2023/03/15 07:00:58;;;;;;;1999.90;999.90;;;;;;;;;;4975863;28;20243;-73
2023/03/15 07:03:43;;;;;;;1999.90;999.90;;;;;;;;;;4985743;28;20575;-72
2023/03/15 07:06:28;;;;;;;1999.90;999.90;;;;;;;;;;4981623;28;20215;-72
2023/03/15 07:09:14;;;;;;;1999.90;999.90;;;;;;;;;;4976494;28;20266;-73
2023/03/15 07:11:59;;;;;;;1999.90;999.90;;;;;;;;;;4973513;28;20752;-72
2023/03/15 07:14:45;;;;;;;1999.90;999.90;;;;;;;;;;4962226;28;20304;-73
2023/03/15 07:17:30;;;;;;;1999.90;999.90;;;;;;;;;;4959484;28;20675;-73
2023/03/15 07:20:15;;;;;;;1999.90;999.90;;;;;;;;;;4976618;28;20324;-72
2023/03/15 07:23:00;;;;;;;1999.90;999.90;;;;;;;;;;4981514;28;20835;-73
2023/03/15 07:25:49;;;;;;;1999.90;999.90;;;;;;;;;;4969050;28;20647;-71
2023/03/15 07:28:34;;;;;;;1999.90;999.90;;;;;;;;;;4978112;28;20224;-73
2023/03/15 07:31:18;;;;;;;1999.90;999.90;;;;;;;;;;4963423;28;20605;-72
2023/03/15 07:34:04;;;;;;;1999.90;999.90;;;;;;;;;;4982859;28;20435;-72
2023/03/15 07:36:49;;;;;;;1999.90;999.90;;;;;;;;;;4985158;28;20257;-73
2023/03/15 07:39:34;;;;;;;1999.90;999.90;;;;;;;;;;4969731;28;20350;-72
2023/03/15 07:42:20;;;;;;;1999.90;999.90;;;;;;;;;;4979308;28;20243;-73
2023/03/15 07:45:06;;;;;;;1999.90;999.90;;;;;;;;;;4988235;28;20213;-72
2023/03/15 07:47:51;;;;;;;1999.90;999.90;;;;;;;;;;4979877;28;20258;-72
2023/03/15 07:50:36;;;;;;;1999.90;999.90;;;;;;;;;;4988028;28;20206;-74
2023/03/15 07:53:22;;;;;;;1999.90;999.90;;;;;;;;;;4985967;28;20211;-72
2023/03/15 07:56:07;;;;;;;1999.90;999.90;;;;;;;;;;4978330;28;20208;-72
2023/03/15 07:58:53;;;;;;;1999.90;999.90;;;;;;;;;;4981235;28;20582;-73
2023/03/15 08:01:38;;;;;;;1999.90;999.90;;;;;;;;;;4980019;28;20223;-72
2023/03/15 08:04:23;;;;;;;1999.90;999.90;;;;;;;;;;4984971;28;20974;-73
2023/03/15 08:07:08;;;;;;;1999.90;999.90;;;;;;;;;;4981065;28;20215;-71
2023/03/15 08:09:53;;;;;;;1999.90;999.90;;;;;;;;;;4988319;28;20706;-71
2023/03/15 08:12:39;;;;;;;1999.90;999.90;;;;;;;;;;4989272;28;21044;-72
2023/03/15 08:15:25;;;;;;;1999.90;999.90;;;;;;;;;;4991841;28;20221;-71
2023/03/15 08:18:10;;;;;;;1999.90;999.90;;;;;;;;;;4989206;28;20324;-70
2023/03/15 08:20:55;;;;;;;1999.90;999.90;;;;;;;;;;4993153;28;20712;-72
2023/03/15 08:23:40;;;;;;;1999.90;999.90;;;;;;;;;;4991478;28;20225;-73
2023/03/15 08:26:25;;;;;;;1999.90;999.90;;;;;;;;;;4986116;28;20982;-72
2023/03/15 08:29:10;;;;;;;1999.90;999.90;;;;;;;;;;4987662;28;20281;-72
2023/03/15 08:31:56;;;;;;;1999.90;999.90;;;;;;;;;;4993132;28;20234;-72
2023/03/15 08:34:41;;;;;;;1999.90;999.90;;;;;;;;;;4981546;28;20324;-71
2023/03/15 08:37:26;;;;;;;1999.90;999.90;;;;;;;;;;4990623;28;20214;-73
2023/03/15 08:40:12;;;;;;;1999.90;999.90;;;;;;;;;;4991636;28;20614;-71
2023/03/15 08:42:57;;;;;;;1999.90;999.90;;;;;;;;;;4983553;28;20640;-71
2023/03/15 08:45:42;;;;;;;1999.90;999.90;;;;;;;;;;4982957;28;20214;-71
2023/03/15 08:48:29;;;;;;;1999.90;999.90;;;;;;;;;;4983982;28;21005;-71
2023/03/15 08:51:14;;;;;;;1999.90;999.90;;;;;;;;;;4977587;28;20258;-72
2023/03/15 08:53:59;;;;;;;1999.90;999.90;;;;;;;;;;4994241;28;20865;-72
2023/03/15 08:56:43;;;;;;;1999.90;999.90;;;;;;;;;;4995119;28;20213;-72
2023/03/15 08:59:28;;;;;;;1999.90;999.90;;;;;;;;;;4994582;28;20399;-72
2023/03/15 09:02:14;;;;;;;1999.90;999.90;;;;;;;;;;4994665;28;20232;-73
2023/03/15 09:05:00;;;;;;;1999.90;999.90;;;;;;;;;;4994981;28;20191;-72
2023/03/15 09:07:45;;;;;;;1999.90;999.90;;;;;;;;;;4994860;28;20228;-72
2023/03/15 09:10:30;;;;;;;1999.90;999.90;;;;;;;;;;4994703;28;20205;-72
2023/03/15 09:13:15;;;;;;;1999.90;999.90;;;;;;;;;;4994403;28;20206;-72
2023/03/15 09:16:00;;;;;;;1999.90;999.90;;;;;;;;;;4994773;28;20569;-72
2023/03/15 09:18:45;;;;;;;1999.90;999.90;;;;;;;;;;4994612;28;20204;-72
2023/03/15 09:21:31;;;;;;;1999.90;999.90;;;;;;;;;;4994438;28;20242;-72
2023/03/15 09:24:16;;;;;;;1999.90;999.90;;;;;;;;;;4994646;28;20735;-72
2023/03/15 09:27:02;;;;;;;1999.90;999.90;;;;;;;;;;4994554;28;20344;-72
2023/03/15 09:29:47;;;;;;;1999.90;999.90;;;;;;;;;;4994316;28;20722;-72
2023/03/15 09:32:34;;;;;;;1999.90;999.90;;;;;;;;;;4994193;28;20348;-72
2023/03/15 09:35:20;;;;;;;1999.90;999.90;;;;;;;;;;4994434;28;20211;-72
2023/03/15 09:38:07;;;;;;;1999.90;999.90;;;;;;;;;;4993962;28;20213;-72
2023/03/15 09:40:56;;;;;;;1999.90;999.90;;;;;;;;;;4994295;28;20347;-71
2023/03/15 09:43:52;;;;;;;1999.90;999.90;;;;;;;;;;4993337;28;20505;-71
2023/03/15 09:46:39;;;;;;;1999.90;999.90;;;;;;;;;;4976252;28;20209;-72
2023/03/15 09:49:30;;;;;;;1999.90;999.90;;;;;;;;;;4958192;28;20589;-71
2023/03/15 09:52:23;;;;;;;1999.90;999.90;;;;;;;;;;4978204;28;20296;-72
2023/03/15 09:55:13;;;;;;;1999.90;999.90;;;;;;;;;;4971827;28;20312;-73
2023/03/15 09:57:58;;;;;;;1999.90;999.90;;;;;;;;;;4976947;28;20289;-72
2023/03/15 10:00:44;;;;;;;1999.90;999.90;;;;;;;;;;4987393;28;20236;-73
2023/03/15 10:03:32;;;;;;;1999.90;999.90;;;;;;;;;;4974201;28;20235;-73
2023/03/15 10:06:19;;;;;;;1999.90;999.90;;;;;;;;;;4979554;28;20209;-75
2023/03/15 10:09:10;;;;;;;1999.90;999.90;;;;;;;;;;4993534;28;20213;-74
2023/03/15 10:12:03;;;;;;;1999.90;999.90;;;;;;;;;;4993615;28;20231;-75
2023/03/15 10:14:57;;;;;;;1999.90;999.90;;;;;;;;;;4954915;29;20258;-75
2023/03/15 10:17:47;;;;;;;1999.90;999.90;;;;;;;;;;4954721;29;20290;-75
2023/03/15 10:20:34;;;;;;;1999.90;999.90;;;;;;;;;;4954515;29;20734;-74
2023/03/15 10:23:20;;;;;;;1999.90;999.90;;;;;;;;;;4975641;28;20220;-74
2023/03/15 10:26:07;;;;;;;1999.90;999.90;;;;;;;;;;4982045;28;20443;-74
2023/03/15 10:28:54;;;;;;;1999.90;999.90;;;;;;;;;;4972935;28;20207;-73
2023/03/15 10:31:40;;;;;;;1999.90;999.90;;;;;;;;;;4965652;28;20241;-74
2023/03/15 10:34:26;;;;;;;1999.90;999.90;;;;;;;;;;4962660;28;20211;-74
2023/03/15 10:37:11;;;;;;;1999.90;999.90;;;;;;;;;;4990520;28;20598;-72
2023/03/15 10:39:58;;;;;;;1999.90;999.90;;;;;;;;;;4984981;28;20213;-73
2023/03/15 10:42:44;;;;;;;1999.90;999.90;;;;;;;;;;4989964;28;20268;-73
2023/03/15 10:45:30;;;;;;;1999.90;999.90;;;;;;;;;;4978622;28;20222;-73
2023/03/15 10:48:15;;;;;;;1999.90;999.90;;;;;;;;;;4965412;28;20731;-74
2023/03/15 10:51:02;;;;;;;1999.90;999.90;;;;;;;;;;4978603;28;20784;-74
2023/03/15 10:53:52;;;;;;;1999.90;999.90;;;;;;;;;;4978028;28;20198;-74
2023/03/15 10:56:42;;;;;;;1999.90;999.90;;;;;;;;;;4979126;28;20222;-73
2023/03/15 10:59:28;;;;;;;1999.90;999.90;;;;;;;;;;4961943;28;20209;-73
2023/03/15 11:02:21;;;;;;;1999.90;999.90;;;;;;;;;;4981612;28;20241;-73
2023/03/15 11:05:15;;;;;;;1999.90;999.90;;;;;;;;;;4977944;28;20811;-77
2023/03/15 11:08:00;;;;;;;1999.90;999.90;;;;;;;;;;4988807;28;20510;-75
2023/03/15 11:10:46;;;;;;;1999.90;999.90;;;;;;;;;;4984299;28;20238;-74
2023/03/15 11:13:32;;;;;;;1999.90;999.90;;;;;;;;;;4976305;28;20578;-74
2023/03/15 11:16:20;;;;;;;1999.90;999.90;;;;;;;;;;4992450;28;20211;-74
2023/03/15 11:19:11;;;;;;;1999.90;999.90;;;;;;;;;;4983876;28;20215;-75
2023/03/15 11:21:57;;;;;;;1999.90;999.90;;;;;;;;;;4986004;28;20239;-75
2023/03/15 11:24:42;;;;;;;1999.90;999.90;;;;;;;;;;4977758;28;20210;-75
2023/03/15 11:27:28;;;;;;;1999.90;999.90;;;;;;;;;;4954450;28;20209;-74
2023/03/15 11:30:14;;;;;;;1999.90;999.90;;;;;;;;;;4986276;28;20231;-74
2023/03/15 11:33:02;;;;;;;1999.90;999.90;;;;;;;;;;4977138;28;20204;-74
2023/03/15 11:35:48;;;;;;;1999.90;999.90;;;;;;;;;;4982837;28;20456;-73
2023/03/15 11:38:35;;;;;;;1999.90;999.90;;;;;;;;;;4967142;28;20220;-74
2023/03/15 11:41:25;;;;;;;1999.90;999.90;;;;;;;;;;4970112;28;20230;-75
2023/03/15 11:44:13;;;;;;;1999.90;999.90;;;;;;;;;;4979926;28;20357;-74
2023/03/15 11:47:01;;;;;;;1999.90;999.90;;;;;;;;;;4995565;28;20409;-74
2023/03/15 11:49:49;;;;;;;1999.90;999.90;;;;;;;;;;4984668;28;20293;-74
2023/03/15 11:52:36;;;;;;;1999.90;999.90;;;;;;;;;;4972291;28;20251;-74
2023/03/15 11:55:24;;;;;;;1999.90;999.90;;;;;;;;;;4981283;28;20207;-75
2023/03/15 11:58:28;;;;;;;1999.90;999.90;;;;;;;;;;4981686;28;20330;-75
2023/03/15 12:01:25;;;;;;;1999.90;999.90;;;;;;;;;;4997490;28;20310;-74
2023/03/15 12:04:28;;;;;;;1999.90;999.90;;;;;;;;;;4971288;28;20251;-76
2023/03/15 12:07:30;;;;;;;1999.90;999.90;;;;;;;;;;4991425;28;20224;-75
2023/03/15 12:10:34;;;;;;;1999.90;999.90;;;;;;;;;;4982504;28;20312;-75
2023/03/15 12:13:23;;;;;;;1999.90;999.90;;;;;;;;;;4992780;28;20206;-75
2023/03/15 12:16:08;;;;;;;1999.90;999.90;;;;;;;;;;4980065;28;20592;-76
2023/03/15 12:18:53;;;;;;;1999.90;999.90;;;;;;;;;;4978114;28;20212;-76
2023/03/15 12:21:38;;;;;;;1999.90;999.90;;;;;;;;;;4969974;28;20620;-75
2023/03/15 12:24:25;;;;;;;1999.90;999.90;;;;;;;;;;4978560;28;20774;-76
2023/03/15 12:27:15;;;;;;;1999.90;999.90;;;;;;;;;;4969323;28;20542;-76
2023/03/15 12:30:02;;;;;;;1999.90;999.90;;;;;;;;;;4993820;28;20460;-74
2023/03/15 12:32:49;;;;;;;1999.90;999.90;;;;;;;;;;4957112;28;20221;-76
2023/03/15 12:35:38;;;;;;;1999.90;999.90;;;;;;;;;;4961399;28;20352;-75
2023/03/15 12:38:23;;;;;;;1999.90;999.90;;;;;;;;;;4984220;28;20700;-75
2023/03/15 12:41:09;;;;;;;1999.90;999.90;;;;;;;;;;4983633;28;20731;-75
2023/03/15 12:44:14;;;;;;;1999.90;999.90;;;;;;;;;;4988148;28;20314;-76
2023/03/15 12:47:01;;;;;;;1999.90;999.90;;;;;;;;;;4958078;28;20573;-74
2023/03/15 12:49:46;;;;;;;1999.90;999.90;;;;;;;;;;4979494;28;20237;-76
2023/03/15 12:52:40;;;;;;;1999.90;999.90;;;;;;;;;;4975141;28;20231;-75
2023/03/15 12:55:27;;;;;;;1999.90;999.90;;;;;;;;;;4967379;28;20231;-75
2023/03/15 12:58:13;;;;;;;1999.90;999.90;;;;;;;;;;4978157;28;20950;-73
2023/03/15 13:01:00;;;;;;;1999.90;999.90;;;;;;;;;;4970199;28;20239;-72
2023/03/15 13:03:47;;;;;;;1999.90;999.90;;;;;;;;;;4966011;28;20223;-76
2023/03/15 13:06:40;;;;;;;1999.90;999.90;;;;;;;;;;4963101;28;20601;-75
2023/03/15 13:09:36;;;;;;;1999.90;999.90;;;;;;;;;;4979734;28;20743;-75
2023/03/15 13:12:24;;;;;;;1999.90;999.90;;;;;;;;;;4975128;28;20440;-76
2023/03/15 13:15:13;;;;;;;1999.90;999.90;;;;;;;;;;4971273;28;20212;-76
2023/03/15 13:18:03;;;;;;;1999.90;999.90;;;;;;;;;;4994135;28;20214;-74
2023/03/15 13:20:57;;;;;;;1999.90;999.90;;;;;;;;;;4993985;28;20239;-75
2023/03/15 13:23:43;;;;;;;1999.90;999.90;;;;;;;;;;4973209;28;20812;-73
2023/03/15 13:26:39;;;;;;;1999.90;999.90;;;;;;;;;;4984912;28;20263;-74
2023/03/15 13:29:27;;;;;;;1999.90;999.90;;;;;;;;;;4970668;28;20213;-73
2023/03/15 13:32:14;;;;;;;1999.90;999.90;;;;;;;;;;4971168;28;20228;-75
2023/03/15 13:34:59;;;;;;;1999.90;999.90;;;;;;;;;;4984130;28;20226;-75
2023/03/15 13:37:45;;;;;;;1999.90;999.90;;;;;;;;;;4984161;28;20717;-75
2023/03/15 13:40:30;;;;;;;1999.90;999.90;;;;;;;;;;4965127;28;20450;-74
2023/03/15 13:43:15;;;;;;;1999.90;999.90;;;;;;;;;;4976041;28;20235;-72
2023/03/15 13:46:00;;;;;;;1999.90;999.90;;;;;;;;;;4988503;28;20330;-74
2023/03/15 13:48:46;;;;;;;1999.90;999.90;;;;;;;;;;4990143;28;20221;-74
2023/03/15 13:51:32;;;;;;;1999.90;999.90;;;;;;;;;;4974367;28;20411;-74
2023/03/15 13:54:23;;;;;;;1999.90;999.90;;;;;;;;;;4974341;28;20200;-74
2023/03/15 13:57:09;;;;;;;1999.90;999.90;;;;;;;;;;4974600;28;20593;-74
2023/03/15 13:59:58;;;;;;;1999.90;999.90;;;;;;;;;;4974194;28;20390;-74
2023/03/15 14:02:47;;;;;;;1999.90;999.90;;;;;;;;;;4974342;28;20267;-74
2023/03/15 14:05:35;;;;;;;1999.90;999.90;;;;;;;;;;4974294;28;20200;-74
2023/03/15 14:08:22;;;;;;;1999.90;999.90;;;;;;;;;;4974218;28;20208;-74
2023/03/15 14:11:11;;;;;;;1999.90;999.90;;;;;;;;;;4974237;28;20239;-74
2023/03/15 14:13:57;;;;;;;1999.90;999.90;;;;;;;;;;4974306;28;20216;-74
2023/03/15 14:16:43;;;;;;;1999.90;999.90;;;;;;;;;;4973933;28;20211;-74
2023/03/15 14:19:29;;;;;;;1999.90;999.90;;;;;;;;;;4973980;28;20211;-74
2023/03/15 14:22:15;;;;;;;1999.90;999.90;;;;;;;;;;4975640;28;20312;-75
2023/03/15 14:25:00;;;;;;;1999.90;999.90;;;;;;;;;;4973799;28;20235;-74
2023/03/15 14:27:46;;;;;;;1999.90;999.90;;;;;;;;;;4974062;28;20207;-75
2023/03/15 14:30:33;;;;;;;1999.90;999.90;;;;;;;;;;4973899;28;20685;-74
2023/03/15 14:33:23;;;;;;;1999.90;999.90;;;;;;;;;;4973953;28;20207;-73
2023/03/15 14:36:20;;;;;;;1999.90;999.90;;;;;;;;;;4973219;28;20505;-74
2023/03/15 14:39:16;;;;;;;1999.90;999.90;;;;;;;;;;4973700;28;20324;-74
2023/03/15 14:42:01;;;;;;;1999.90;999.90;;;;;;;;;;4973682;28;20584;-74
2023/03/15 14:44:48;;;;;;;1999.90;999.90;;;;;;;;;;4973566;28;20231;-74
2023/03/15 14:47:34;;;;;;;1999.90;999.90;;;;;;;;;;4973567;28;20336;-74
2023/03/15 14:50:21;;;;;;;1999.90;999.90;;;;;;;;;;4973304;28;20203;-74
2023/03/15 14:53:07;;;;;;;1999.90;999.90;;;;;;;;;;4973807;28;20540;-74
2023/03/15 14:55:52;;;;;;;1999.90;999.90;;;;;;;;;;4973541;28;20207;-74
2023/03/15 14:58:37;;;;;;;1999.90;999.90;;;;;;;;;;4973368;28;20226;-74
2023/03/15 15:01:24;;;;;;;1999.90;999.90;;;;;;;;;;4973351;28;20226;-74
2023/03/15 15:04:10;;;;;;;1999.90;999.90;;;;;;;;;;4973517;28;20228;-74
2023/03/15 15:06:56;;;;;;;1999.90;999.90;;;;;;;;;;4973668;28;20583;-74
2023/03/15 15:09:44;;;;;;;1999.90;999.90;;;;;;;;;;4973199;28;20212;-74
2023/03/15 15:12:29;;;;;;;1999.90;999.90;;;;;;;;;;4973352;28;20735;-74
2023/03/15 15:15:15;;;;;;;1999.90;999.90;;;;;;;;;;4973101;28;20331;-74
2023/03/15 15:18:02;;;;;;;1999.90;999.90;;;;;;;;;;4973260;28;20578;-74
2023/03/15 15:20:49;;;;;;;1999.90;999.90;;;;;;;;;;4973110;28;20735;-74
2023/03/15 15:23:35;;;;;;;1999.90;999.90;;;;;;;;;;4971617;28;20411;-75
2023/03/15 15:26:21;;;;;;;1999.90;999.90;;;;;;;;;;4973153;28;20993;-74
2023/03/15 15:29:06;;;;;;;1999.90;999.90;;;;;;;;;;4972875;28;20199;-74
2023/03/15 15:31:52;;;;;;;1999.90;999.90;;;;;;;;;;4972863;28;20248;-74
2023/03/15 15:34:39;;;;;;;1999.90;999.90;;;;;;;;;;4973373;28;20219;-74
2023/03/15 15:37:24;;;;;;;1999.90;999.90;;;;;;;;;;4972706;28;20216;-74
2023/03/15 15:40:14;;;;;;;1999.90;999.90;;;;;;;;;;4972868;28;20797;-74
2023/03/15 15:43:02;;;;;;;1999.90;999.90;;;;;;;;;;4973002;28;20286;-74
2023/03/15 15:45:46;;;;;;;1999.90;999.90;;;;;;;;;;4972567;28;20684;-72
2023/03/15 15:48:31;;;;;;;1999.90;999.90;;;;;;;;;;4972561;28;20635;-74
2023/03/15 15:51:19;;;;;;;1999.90;999.90;;;;;;;;;;4972484;28;20904;-74
2023/03/15 15:54:05;;;;;;;1999.90;999.90;;;;;;;;;;4972900;28;20287;-74
2023/03/15 15:56:51;;;;;;;1999.90;999.90;;;;;;;;;;4972820;28;20361;-74
2023/03/15 15:59:36;;;;;;;1999.90;999.90;;;;;;;;;;4972589;28;20211;-74
2023/03/15 16:02:21;;;;;;;1999.90;999.90;;;;;;;;;;4972442;28;20303;-74
2023/03/15 16:05:08;;;;;;;1999.90;999.90;;;;;;;;;;4971490;28;20438;-74
2023/03/15 16:07:55;;;;;;;1999.90;999.90;;;;;;;;;;4972427;28;20684;-74
2023/03/15 16:10:40;;;;;;;1999.90;999.90;;;;;;;;;;4972669;28;20251;-74
2023/03/15 16:13:25;;;;;;;1999.90;999.90;;;;;;;;;;4972714;28;20224;-74
2023/03/15 16:16:12;;;;;;;1999.90;999.90;;;;;;;;;;4972596;28;20191;-74
2023/03/15 16:18:57;;;;;;;1999.90;999.90;;;;;;;;;;4972521;28;20251;-74
2023/03/15 16:21:44;;;;;;;1999.90;999.90;;;;;;;;;;4973441;28;20278;-74
2023/03/15 16:24:32;;;;;;;1999.90;999.90;;;;;;;;;;4976241;28;20227;-74
2023/03/15 16:27:21;;;;;;;1999.90;999.90;;;;;;;;;;4979682;28;20255;-74
2023/03/15 16:30:06;;;;;;;1999.90;999.90;;;;;;;;;;4976027;28;20248;-74
2023/03/15 16:32:54;;;;;;;1999.90;999.90;;;;;;;;;;4976138;28;20196;-74
2023/03/15 16:35:39;;;;;;;1999.90;999.90;;;;;;;;;;4974703;28;21039;-73
2023/03/15 16:38:26;;;;;;;1999.90;999.90;;;;;;;;;;4975850;28;20203;-74
2023/03/15 16:41:14;;;;;;;1999.90;999.90;;;;;;;;;;4975591;28;20231;-74
2023/03/15 16:44:00;;;;;;;1999.90;999.90;;;;;;;;;;4975776;28;20207;-74
2023/03/15 16:46:45;;;;;;;1999.90;999.90;;;;;;;;;;4975307;28;20467;-74
2023/03/15 16:49:30;;;;;;;1999.90;999.90;;;;;;;;;;4975654;28;20701;-74
2023/03/15 16:52:15;;;;;;;1999.90;999.90;;;;;;;;;;4975456;28;20224;-74
2023/03/15 16:55:01;;;;;;;1999.90;999.90;;;;;;;;;;4975713;28;20252;-74
2023/03/15 16:57:47;;;;;;;1999.90;999.90;;;;;;;;;;4975213;28;20231;-74
2023/03/15 17:00:32;;;;;;;1999.90;999.90;;;;;;;;;;4975410;28;20306;-74
2023/03/15 17:03:17;;;;;;;1999.90;999.90;;;;;;;;;;4975314;28;20294;-74
2023/03/15 17:06:03;;;;;;;1999.90;999.90;;;;;;;;;;4975077;28;20730;-74
2023/03/15 17:08:48;;;;;;;1999.90;999.90;;;;;;;;;;4975386;28;20214;-74
2023/03/15 17:11:33;;;;;;;1999.90;999.90;;;;;;;;;;4975438;28;20347;-74
2023/03/15 17:14:23;;;;;;;1999.90;999.90;;;;;;;;;;4975258;28;20211;-74
2023/03/15 17:17:09;;;;;;;1999.90;999.90;;;;;;;;;;4974737;28;20426;-74
2023/03/15 17:19:54;;;;;;;1999.90;999.90;;;;;;;;;;4975088;28;20509;-74
2023/03/15 17:22:40;;;;;;;1999.90;999.90;;;;;;;;;;4974944;28;20383;-73
2023/03/15 17:25:26;;;;;;;1999.90;999.90;;;;;;;;;;4974918;28;20232;-74
2023/03/15 17:28:11;;;;;;;1999.90;999.90;;;;;;;;;;4975098;28;20271;-73
2023/03/15 17:30:58;;;;;;;1999.90;999.90;;;;;;;;;;4973720;28;20432;-74
2023/03/15 17:33:44;;;;;;;1999.90;999.90;;;;;;;;;;4974800;28;20317;-74
2023/03/15 17:36:32;;;;;;;1999.90;999.90;;;;;;;;;;4974853;28;20239;-74
2023/03/15 17:39:17;;;;;;;1999.90;999.90;;;;;;;;;;4974667;28;20688;-74
2023/03/15 17:42:02;;;;;;;1999.90;999.90;;;;;;;;;;4974950;28;20226;-74
2023/03/15 17:44:47;;;;;;;1999.90;999.90;;;;;;;;;;4974657;28;20222;-74
2023/03/15 17:47:34;;;;;;;1999.90;999.90;;;;;;;;;;4974680;28;20210;-74
2023/03/15 17:50:19;;;;;;;1999.90;999.90;;;;;;;;;;4974580;28;20219;-74